Aula de Teoría

En la sede del Aeroclub Mar del Plata contamos con el Aula para instrucción teórica y practica con nuestro Adiestrador Terrestre de Vuelo, para la formación de nuestros Pilotos de avión

Facebook Aeroclub Mar del Plata

Informe Climatico
MAR DEL PLATA AR
Metar
SAZM 162000Z 14014KT 6000 OVC025 14/12 Q1026

20:00 UTC

Wind: 140° 14kt

Visibility: 6000 m

Sky: OVC 2500 ft

Temp: 14 deg C / 57.2 deg F

Dewpoint: 12 deg C / 53.6 deg F

Pressure: 1026 hPa

TAF
TAF SAZM 161700Z 1618/1718 11015KT 5000 DZ BR BKN005 OVC010 TX13/1718Z TN11/1710Z BECMG 1710/1713 07015KT 2000 RA DZ OVC005 PROB40 TEMPO 1715/1718 05020G30KT 2000 +TSRA BKN010 FEW040CB OVC045